Terminal Aerodrome Forecast
Issued by NWS

Home | Current Version | Previous Version | Text Only | Print | Product List | Glossary On
Versions: 1 2 3 4 5 6 7 8 9 10 11 12 13 14 15 16 17
531
FTUS45 KTFX 221138
TAFCTB
TAF
KCTB 221138Z 2212/2312 33004KT P6SM VCFG SCT003 BKN100
     FM221800 31011KT P6SM SCT015 BKN150
     FM230100 01011KT 4SM -SN BR BKN012 OVC025=

USA.gov is the U.S. government's official web portal to all federal, state and local government web resources and services.